createdAt,value
2018-11-03T00:01:14.026Z,8.50
2018-11-03T00:03:41.205Z,8.40
2018-11-03T00:06:08.398Z,8.40
2018-11-03T00:08:35.601Z,8.30
2018-11-03T00:11:02.810Z,8.20
2018-11-03T00:13:30.017Z,8.20
2018-11-03T00:15:57.214Z,8.10
2018-11-03T00:18:24.396Z,8.10
2018-11-03T00:20:51.574Z,8.00
2018-11-03T00:23:18.789Z,8.10
2018-11-03T00:25:45.956Z,8.10
2018-11-03T00:28:13.214Z,8.10
2018-11-03T00:30:40.413Z,8.10
2018-11-03T00:35:41.582Z,7.90
2018-11-03T00:38:08.765Z,7.90
2018-11-03T00:40:42.845Z,7.80
2018-11-03T00:43:10.036Z,7.80
2018-11-03T00:45:38.236Z,7.80
2018-11-03T00:48:05.773Z,7.70
2018-11-03T00:50:32.953Z,7.70
2018-11-03T00:53:00.142Z,7.70
2018-11-03T00:55:27.308Z,7.60
2018-11-03T00:57:54.530Z,7.60
2018-11-03T01:00:21.785Z,7.50
2018-11-03T01:02:49.506Z,7.60
2018-11-03T01:05:16.704Z,7.60
2018-11-03T01:07:44.214Z,7.60
2018-11-03T01:10:11.578Z,7.60
2018-11-03T01:12:39.431Z,7.60
2018-11-03T01:15:09.869Z,7.70
2018-11-03T01:17:37.042Z,7.80
2018-11-03T01:20:05.490Z,7.80
2018-11-03T01:22:32.693Z,7.80
2018-11-03T01:24:59.874Z,7.80
2018-11-03T01:27:27.053Z,7.80
2018-11-03T01:30:01.045Z,7.80
2018-11-03T01:32:28.336Z,7.90
2018-11-03T01:34:55.511Z,7.80
2018-11-03T01:37:22.708Z,7.70
2018-11-03T01:39:56.797Z,7.80
2018-11-03T01:42:23.989Z,7.80
2018-11-03T01:44:51.253Z,7.80
2018-11-03T01:47:18.438Z,7.90
2018-11-03T01:49:45.618Z,7.90
2018-11-03T01:52:12.793Z,7.90
2018-11-03T01:54:39.993Z,7.90
2018-11-03T01:57:07.165Z,7.90
2018-11-03T01:59:34.365Z,7.90
2018-11-03T02:02:01.561Z,7.90
2018-11-03T02:04:28.737Z,7.90
2018-11-03T02:06:55.925Z,7.80
2018-11-03T02:09:23.113Z,7.90
2018-11-03T02:11:50.289Z,7.90
2018-11-03T02:14:17.493Z,7.90
2018-11-03T02:16:44.678Z,7.90
2018-11-03T02:19:11.916Z,7.80
2018-11-03T02:21:39.069Z,7.80
2018-11-03T02:24:06.358Z,7.80
2018-11-03T02:26:34.729Z,7.80
2018-11-03T02:29:02.212Z,7.70
2018-11-03T02:31:29.404Z,7.70
2018-11-03T02:33:56.701Z,7.70
2018-11-03T02:36:23.950Z,7.60
2018-11-03T02:38:51.145Z,7.50
2018-11-03T02:41:18.334Z,7.50
2018-11-03T02:43:45.522Z,7.50
2018-11-03T02:46:12.698Z,7.60
2018-11-03T02:48:39.935Z,7.60
2018-11-03T02:51:07.113Z,7.50
2018-11-03T02:53:34.298Z,7.50
2018-11-03T02:56:01.480Z,7.50
2018-11-03T02:58:28.910Z,7.40
2018-11-03T03:00:56.133Z,7.50
2018-11-03T03:03:23.335Z,7.50
2018-11-03T03:05:50.525Z,7.50
2018-11-03T03:08:17.723Z,7.50
2018-11-03T03:10:44.921Z,7.50
2018-11-03T03:13:12.104Z,7.50
2018-11-03T03:15:39.323Z,7.50
2018-11-03T03:18:06.490Z,7.50
2018-11-03T03:20:33.694Z,7.50
2018-11-03T03:23:00.869Z,7.40
2018-11-03T03:25:28.049Z,7.40
2018-11-03T03:27:55.237Z,7.30
2018-11-03T03:30:22.423Z,7.30
2018-11-03T03:32:49.598Z,7.30
2018-11-03T03:35:16.802Z,7.40
2018-11-03T03:37:43.981Z,7.40
2018-11-03T03:40:11.189Z,7.30
2018-11-03T03:42:38.429Z,7.40
2018-11-03T03:45:06.514Z,7.30
2018-11-03T03:47:33.689Z,7.40
2018-11-03T03:50:00.973Z,7.40
2018-11-03T03:52:28.126Z,7.30
2018-11-03T03:54:55.340Z,7.40
2018-11-03T03:57:22.519Z,7.40
2018-11-03T03:59:49.729Z,7.40
2018-11-03T04:02:16.910Z,7.40
2018-11-03T04:04:44.090Z,7.40
2018-11-03T04:07:11.289Z,7.30
2018-11-03T04:09:38.473Z,7.20
2018-11-03T04:12:12.470Z,7.20
2018-11-03T04:14:39.666Z,7.20
2018-11-03T04:17:06.834Z,7.10
2018-11-03T04:19:34.025Z,7.10
2018-11-03T04:22:01.201Z,7.10
2018-11-03T04:24:28.374Z,7.10
2018-11-03T04:26:55.565Z,7.10
2018-11-03T04:29:22.742Z,7.00
2018-11-03T04:31:49.970Z,6.90
2018-11-03T04:34:17.154Z,6.90
2018-11-03T04:36:44.346Z,6.80
2018-11-03T04:39:11.522Z,6.80
2018-11-03T04:41:38.697Z,6.90
2018-11-03T04:44:05.861Z,6.90
2018-11-03T04:46:33.055Z,6.80
2018-11-03T04:49:00.222Z,6.90
2018-11-03T04:51:27.521Z,6.90
2018-11-03T04:53:54.701Z,6.90
2018-11-03T04:56:21.885Z,6.80
2018-11-03T04:58:49.065Z,6.80
2018-11-03T05:01:16.245Z,6.70
2018-11-03T05:03:43.417Z,6.70
2018-11-03T05:06:10.604Z,6.50
2018-11-03T05:08:37.786Z,6.50
2018-11-03T05:11:05.003Z,6.50
2018-11-03T05:13:32.182Z,6.50
2018-11-03T05:15:59.353Z,6.50
2018-11-03T05:18:26.559Z,6.50
2018-11-03T05:20:53.729Z,6.60
2018-11-03T05:23:20.889Z,6.70
2018-11-03T05:25:48.085Z,6.60
2018-11-03T05:28:15.281Z,6.60
2018-11-03T05:30:42.481Z,6.60
2018-11-03T05:33:09.668Z,6.60
2018-11-03T05:35:36.841Z,6.60
2018-11-03T05:38:04.497Z,6.50
2018-11-03T05:40:31.682Z,6.60
2018-11-03T05:42:58.856Z,6.60
2018-11-03T05:45:26.034Z,6.60
2018-11-03T05:47:53.210Z,6.60
2018-11-03T05:50:20.397Z,6.60
2018-11-03T05:52:47.578Z,6.60
2018-11-03T05:55:14.765Z,6.60
2018-11-03T05:57:41.958Z,6.50
2018-11-03T06:00:09.605Z,6.50
2018-11-03T06:02:36.822Z,6.50
2018-11-03T06:05:04.797Z,6.50
2018-11-03T06:07:31.981Z,6.40
2018-11-03T06:09:59.161Z,6.40
2018-11-03T06:12:26.374Z,6.40
2018-11-03T06:14:53.549Z,6.40
2018-11-03T06:17:20.745Z,6.40
2018-11-03T06:19:47.909Z,6.40
2018-11-03T06:22:15.099Z,6.50
2018-11-03T06:24:42.329Z,6.50
2018-11-03T06:27:09.461Z,6.60
2018-11-03T06:29:43.353Z,6.60
2018-11-03T06:32:10.554Z,6.50
2018-11-03T06:34:37.728Z,6.50
2018-11-03T06:37:05.148Z,6.40
2018-11-03T06:39:32.327Z,6.50
2018-11-03T06:41:59.585Z,6.40
2018-11-03T06:44:26.813Z,6.40
2018-11-03T06:46:53.997Z,6.30
2018-11-03T06:49:22.265Z,6.30
2018-11-03T06:51:50.720Z,6.20
2018-11-03T06:54:17.990Z,6.20
2018-11-03T06:56:45.185Z,6.20
2018-11-03T06:59:12.381Z,6.10
2018-11-03T07:01:39.569Z,6.20
2018-11-03T07:04:07.082Z,6.20
2018-11-03T07:06:34.297Z,6.30
2018-11-03T07:09:01.496Z,6.40
2018-11-03T07:11:29.376Z,6.50
2018-11-03T07:13:56.522Z,6.70
2018-11-03T07:16:23.782Z,6.70
2018-11-03T07:18:51.221Z,6.70
2018-11-03T07:21:18.489Z,6.70
2018-11-03T07:23:45.735Z,6.70
2018-11-03T07:26:12.894Z,6.70
2018-11-03T07:28:40.077Z,6.70
2018-11-03T07:31:07.272Z,6.80
2018-11-03T07:33:34.449Z,6.80
2018-11-03T07:36:01.659Z,6.80
2018-11-03T07:38:28.875Z,6.80
2018-11-03T07:40:56.119Z,6.80
2018-11-03T07:43:23.229Z,6.90
2018-11-03T07:45:50.825Z,7.00
2018-11-03T07:48:18.189Z,7.00
2018-11-03T07:50:45.189Z,7.00
2018-11-03T07:53:12.373Z,7.10
2018-11-03T07:55:39.635Z,7.10
2018-11-03T07:58:06.809Z,7.10
2018-11-03T08:03:07.957Z,7.20
2018-11-03T08:05:35.125Z,7.30
2018-11-03T08:08:02.341Z,7.50
2018-11-03T08:10:36.364Z,7.50
2018-11-03T08:13:04.085Z,7.60
2018-11-03T08:15:31.383Z,7.60
2018-11-03T08:17:58.622Z,7.70
2018-11-03T08:23:57.254Z,7.70
2018-11-03T08:26:24.484Z,7.70
2018-11-03T08:28:51.729Z,7.70
2018-11-03T08:31:19.097Z,7.80
2018-11-03T08:33:46.233Z,7.80
2018-11-03T08:36:13.492Z,7.80
2018-11-03T08:38:40.757Z,7.90
2018-11-03T08:41:08.026Z,7.90
2018-11-03T08:43:35.330Z,8.00
2018-11-03T08:46:02.635Z,8.10
2018-11-03T08:48:29.848Z,8.20
2018-11-03T08:50:56.998Z,8.30
2018-11-03T08:53:24.197Z,8.40
2018-11-03T08:55:51.373Z,8.50
2018-11-03T08:58:18.557Z,8.50
2018-11-03T09:00:45.770Z,8.50
2018-11-03T09:03:12.947Z,8.60
2018-11-03T09:05:40.230Z,8.60
2018-11-03T09:08:07.482Z,8.60
2018-11-03T09:11:38.380Z,8.60
2018-11-03T09:14:05.681Z,8.60
2018-11-03T09:16:32.901Z,8.60
2018-11-03T09:19:00.086Z,8.60
2018-11-03T09:21:27.355Z,8.60
2018-11-03T09:23:54.495Z,8.70
2018-11-03T09:26:21.752Z,8.70
2018-11-03T09:28:48.920Z,8.60
2018-11-03T09:31:16.102Z,8.70
2018-11-03T09:33:43.442Z,8.80
2018-11-03T09:36:10.737Z,8.90
2018-11-03T09:38:38.026Z,8.90
2018-11-03T09:41:05.258Z,8.90
2018-11-03T09:43:32.583Z,8.90
2018-11-03T09:45:59.762Z,8.90
2018-11-03T09:48:27.024Z,9.00
2018-11-03T09:50:54.283Z,9.00
2018-11-03T09:53:21.494Z,9.00
2018-11-03T09:55:48.798Z,9.10
2018-11-03T09:58:16.046Z,9.20
2018-11-03T10:00:43.236Z,9.20
2018-11-03T10:03:10.433Z,9.30
2018-11-03T10:05:44.366Z,9.40
2018-11-03T10:08:11.563Z,9.50
2018-11-03T10:10:38.757Z,9.60
2018-11-03T10:13:05.949Z,9.60
2018-11-03T10:15:33.133Z,9.80
2018-11-03T10:18:00.329Z,9.80
2018-11-03T10:20:27.521Z,9.80
2018-11-03T10:22:54.743Z,9.70
2018-11-03T10:25:21.902Z,9.70
2018-11-03T10:27:49.131Z,9.60
2018-11-03T10:30:17.019Z,9.70
2018-11-03T10:32:44.489Z,9.70
2018-11-03T10:35:12.342Z,9.70
2018-11-03T10:37:39.608Z,9.60
2018-11-03T10:40:08.689Z,9.60
2018-11-03T10:42:35.985Z,9.60
2018-11-03T10:45:03.689Z,9.50
2018-11-03T10:47:30.949Z,9.60
2018-11-03T10:49:58.145Z,9.80
2018-11-03T10:52:25.325Z,9.90
2018-11-03T10:54:52.517Z,9.90
2018-11-03T10:57:19.813Z,9.90
2018-11-03T10:59:47.007Z,10.00
2018-11-03T11:02:20.053Z,10.00
2018-11-03T11:04:53.128Z,10.00
2018-11-03T11:08:24.769Z,10.10
2018-11-03T11:10:57.697Z,10.20
2018-11-03T11:13:26.720Z,10.20
2018-11-03T11:15:55.443Z,10.20
2018-11-03T11:18:22.712Z,10.30
2018-11-03T11:20:49.885Z,10.40
2018-11-03T11:23:17.075Z,10.50
2018-11-03T11:25:44.249Z,10.60
2018-11-03T11:28:11.421Z,10.60
2018-11-03T11:30:41.001Z,10.70
2018-11-03T11:33:10.067Z,10.80
2018-11-03T11:35:37.265Z,10.80
2018-11-03T11:38:05.325Z,10.90
2018-11-03T11:40:32.576Z,10.90
2018-11-03T11:42:59.894Z,11.00
2018-11-03T11:45:27.005Z,11.00
2018-11-03T11:47:54.214Z,11.00
2018-11-03T11:50:21.394Z,11.00
2018-11-03T11:52:48.621Z,11.10
2018-11-03T11:55:15.811Z,11.20
2018-11-03T11:57:42.989Z,11.30
2018-11-03T12:00:10.317Z,11.50
2018-11-03T12:02:37.558Z,11.50
2018-11-03T12:05:04.750Z,11.50
2018-11-03T12:07:32.025Z,11.60
2018-11-03T12:09:59.284Z,11.60
2018-11-03T12:12:26.434Z,11.60
2018-11-03T12:14:53.665Z,11.70
2018-11-03T12:17:20.832Z,11.70
2018-11-03T12:19:47.998Z,11.80
2018-11-03T12:22:15.160Z,11.90
2018-11-03T12:24:42.349Z,11.90
2018-11-03T12:27:09.529Z,11.90
2018-11-03T12:29:36.717Z,11.80
2018-11-03T12:32:04.166Z,11.80
2018-11-03T12:34:31.362Z,11.80
2018-11-03T12:36:58.533Z,11.80
2018-11-03T12:39:25.706Z,11.90
2018-11-03T12:41:52.869Z,12.00
2018-11-03T12:44:20.045Z,12.00
2018-11-03T12:46:47.233Z,12.10
2018-11-03T12:49:14.434Z,12.20
2018-11-03T12:51:41.605Z,12.20
2018-11-03T12:54:08.785Z,12.20
2018-11-03T12:56:35.977Z,12.30
2018-11-03T12:59:03.196Z,12.30
2018-11-03T13:01:30.358Z,12.30
2018-11-03T13:03:57.539Z,12.30
2018-11-03T13:06:24.726Z,12.30
2018-11-03T13:08:51.897Z,12.40
2018-11-03T13:11:19.174Z,12.40
2018-11-03T13:13:46.362Z,12.40
2018-11-03T13:16:13.517Z,12.40
2018-11-03T13:18:40.673Z,12.30
2018-11-03T13:21:07.841Z,12.30
2018-11-03T13:23:35.002Z,12.30
2018-11-03T13:26:02.168Z,12.30
2018-11-03T13:28:29.389Z,12.40
2018-11-03T13:30:56.566Z,12.30
2018-11-03T13:33:23.729Z,12.30
2018-11-03T13:35:50.893Z,12.30
2018-11-03T13:38:18.039Z,12.30
2018-11-03T13:40:45.263Z,12.40
2018-11-03T13:43:12.397Z,12.40
2018-11-03T13:45:39.570Z,12.40
2018-11-03T13:48:06.817Z,12.30
2018-11-03T13:50:34.008Z,12.30
2018-11-03T13:53:01.169Z,12.30
2018-11-03T13:55:28.362Z,12.40
2018-11-03T13:57:55.517Z,12.40
2018-11-03T14:00:22.699Z,12.40
2018-11-03T14:02:49.881Z,12.50
2018-11-03T14:05:17.048Z,12.60
2018-11-03T14:07:44.225Z,12.60
2018-11-03T14:10:14.949Z,12.70
2018-11-03T14:12:48.861Z,12.70
2018-11-03T14:15:17.154Z,12.70
2018-11-03T14:17:44.309Z,12.80
2018-11-03T14:20:12.670Z,12.70
2018-11-03T14:22:40.217Z,12.70
2018-11-03T14:25:08.808Z,12.60
2018-11-03T14:27:36.008Z,12.50
2018-11-03T14:30:03.912Z,12.40
2018-11-03T14:32:31.381Z,12.30
2018-11-03T14:34:58.557Z,12.30
2018-11-03T14:37:25.713Z,12.30
2018-11-03T14:39:52.886Z,12.20
2018-11-03T14:42:20.067Z,12.10
2018-11-03T14:44:47.297Z,12.10
2018-11-03T14:47:14.414Z,12.20
2018-11-03T14:49:41.586Z,12.10
2018-11-03T14:52:08.813Z,12.00
2018-11-03T14:54:35.976Z,12.00
2018-11-03T14:57:03.150Z,12.00
2018-11-03T14:59:30.337Z,11.90
2018-11-03T15:01:57.522Z,11.90
2018-11-03T15:04:24.685Z,11.90
2018-11-03T15:06:51.857Z,11.80
2018-11-03T15:09:19.066Z,11.80
2018-11-03T15:11:46.234Z,11.80
2018-11-03T15:14:13.459Z,11.70
2018-11-03T15:16:40.590Z,11.60
2018-11-03T15:19:08.049Z,11.60
2018-11-03T15:21:35.229Z,11.60
2018-11-03T15:24:02.670Z,11.50
2018-11-03T15:26:29.846Z,11.50
2018-11-03T15:28:57.066Z,11.50
2018-11-03T15:31:24.337Z,11.40
2018-11-03T15:33:51.513Z,11.30
2018-11-03T15:36:18.710Z,11.20
2018-11-03T15:38:45.882Z,11.20
2018-11-03T15:41:13.068Z,11.20
2018-11-03T15:43:40.281Z,11.10
2018-11-03T15:46:07.462Z,11.00
2018-11-03T15:48:34.633Z,11.00
2018-11-03T15:51:01.815Z,11.00
2018-11-03T15:53:28.981Z,10.90
2018-11-03T15:55:56.154Z,10.80
2018-11-03T15:58:23.314Z,10.80
2018-11-03T16:00:50.485Z,10.70
2018-11-03T16:03:17.660Z,10.60
2018-11-03T16:05:44.845Z,10.60
2018-11-03T16:08:12.014Z,10.60
2018-11-03T16:10:39.189Z,10.60
2018-11-03T16:13:06.365Z,10.60
2018-11-03T16:15:33.553Z,10.50
2018-11-03T16:18:00.723Z,10.40
2018-11-03T16:20:27.914Z,10.50
2018-11-03T16:22:55.135Z,10.40
2018-11-03T16:25:22.285Z,10.40
2018-11-03T16:27:49.458Z,10.30
2018-11-03T16:30:17.025Z,10.30
2018-11-03T16:32:44.454Z,10.30
2018-11-03T16:35:11.413Z,10.20
2018-11-03T16:37:39.154Z,10.30
2018-11-03T16:40:07.494Z,10.20
2018-11-03T16:42:34.774Z,10.20
2018-11-03T16:45:01.950Z,10.20
2018-11-03T16:47:29.125Z,10.20
2018-11-03T16:49:56.281Z,10.30
2018-11-03T16:52:23.468Z,10.30
2018-11-03T16:54:50.639Z,10.30
2018-11-03T16:57:17.839Z,10.30
2018-11-03T16:59:45.007Z,10.30
2018-11-03T17:02:12.258Z,10.30
2018-11-03T17:04:39.482Z,10.30
2018-11-03T17:07:06.659Z,10.30
2018-11-03T17:09:33.829Z,10.30
2018-11-03T17:12:01.057Z,10.40
2018-11-03T17:14:28.269Z,10.40
2018-11-03T17:17:02.353Z,10.40
2018-11-03T17:19:29.513Z,10.30
2018-11-03T17:21:56.681Z,10.40
2018-11-03T17:24:23.973Z,10.30
2018-11-03T17:26:51.175Z,10.30
2018-11-03T17:29:25.109Z,10.30
2018-11-03T17:31:52.286Z,10.20
2018-11-03T17:34:19.473Z,10.20
2018-11-03T17:36:46.677Z,10.30
2018-11-03T17:39:13.856Z,10.20
2018-11-03T17:41:41.029Z,10.20
2018-11-03T17:44:08.255Z,10.20
2018-11-03T17:46:35.821Z,10.20
2018-11-03T17:49:03.165Z,10.20
2018-11-03T17:51:30.345Z,10.20
2018-11-03T17:53:57.509Z,10.20
2018-11-03T17:56:24.687Z,10.20
2018-11-03T17:58:51.878Z,10.20
2018-11-03T18:01:19.264Z,10.20
2018-11-03T18:03:46.301Z,10.20
2018-11-03T18:06:20.326Z,10.20
2018-11-03T18:08:47.492Z,10.20
2018-11-03T18:11:14.678Z,10.20
2018-11-03T18:13:41.857Z,10.30
2018-11-03T18:16:09.054Z,10.30
2018-11-03T18:18:36.248Z,10.30
2018-11-03T18:21:04.513Z,10.30
2018-11-03T18:23:31.718Z,10.20
2018-11-03T18:25:58.913Z,10.30
2018-11-03T18:28:26.091Z,10.30
2018-11-03T18:30:53.281Z,10.30
2018-11-03T18:33:20.554Z,10.40
2018-11-03T18:35:47.609Z,10.40
2018-11-03T18:38:14.805Z,10.40
2018-11-03T18:40:41.974Z,10.30
2018-11-03T18:43:09.177Z,10.40
2018-11-03T18:45:36.345Z,10.40
2018-11-03T18:48:03.587Z,10.40
2018-11-03T18:50:30.721Z,10.40
2018-11-03T18:52:57.919Z,10.40
2018-11-03T18:55:25.082Z,10.40
2018-11-03T18:57:52.265Z,10.40
2018-11-03T19:00:19.449Z,10.40
2018-11-03T19:02:46.617Z,10.40
2018-11-03T19:07:47.869Z,10.40
2018-11-03T19:10:15.050Z,10.40
2018-11-03T19:12:42.235Z,10.30
2018-11-03T19:15:10.150Z,10.30
2018-11-03T19:17:37.434Z,10.30
2018-11-03T19:20:07.835Z,10.30
2018-11-03T19:22:35.077Z,10.30
2018-11-03T19:25:02.335Z,10.30
2018-11-03T19:27:29.585Z,10.30
2018-11-03T19:29:56.755Z,10.30
2018-11-03T19:32:23.929Z,10.30
2018-11-03T19:34:51.094Z,10.30
2018-11-03T19:37:18.281Z,10.30
2018-11-03T19:39:45.433Z,10.30
2018-11-03T19:42:12.729Z,10.30
2018-11-03T19:44:39.893Z,10.30
2018-11-03T19:47:07.081Z,10.20
2018-11-03T19:49:34.250Z,10.30
2018-11-03T19:52:01.536Z,10.30
2018-11-03T19:54:28.763Z,10.30
2018-11-03T19:56:56.025Z,10.20
2018-11-03T19:59:23.199Z,10.30
2018-11-03T20:01:50.357Z,10.30
2018-11-03T20:04:17.536Z,10.30
2018-11-03T20:06:44.728Z,10.30
2018-11-03T20:09:11.901Z,10.30
2018-11-03T20:11:39.077Z,10.30
2018-11-03T20:14:06.370Z,10.20
2018-11-03T20:16:33.785Z,10.20
2018-11-03T20:19:01.142Z,10.20
2018-11-03T20:21:28.424Z,10.20
2018-11-03T20:23:55.593Z,10.20
2018-11-03T20:26:22.786Z,10.20
2018-11-03T20:28:50.075Z,10.10
2018-11-03T20:31:17.346Z,10.20
2018-11-03T20:33:44.581Z,10.10
2018-11-03T20:36:11.872Z,10.10
2018-11-03T20:38:39.093Z,10.10
2018-11-03T20:41:06.273Z,10.00
2018-11-03T20:43:33.465Z,10.10
2018-11-03T20:46:00.738Z,10.10
2018-11-03T20:48:27.942Z,10.00
2018-11-03T20:51:00.770Z,9.90
2018-11-03T20:53:28.098Z,10.00
2018-11-03T20:55:55.277Z,10.00
2018-11-03T20:58:22.465Z,10.00
2018-11-03T21:00:49.674Z,10.00
2018-11-03T21:03:16.933Z,9.90
2018-11-03T21:05:44.093Z,10.00
2018-11-03T21:08:11.466Z,9.90
2018-11-03T21:10:38.550Z,9.90
2018-11-03T21:13:05.741Z,9.90
2018-11-03T21:15:32.914Z,10.00
2018-11-03T21:18:00.093Z,10.10
2018-11-03T21:20:27.286Z,10.00
2018-11-03T21:22:54.577Z,9.90
2018-11-03T21:25:21.625Z,10.00
2018-11-03T21:27:48.810Z,9.90
2018-11-03T21:30:16.130Z,9.90
2018-11-03T21:32:43.389Z,9.90
2018-11-03T21:35:10.506Z,10.00
2018-11-03T21:37:37.669Z,10.00
2018-11-03T21:40:05.506Z,10.00
2018-11-03T21:42:32.687Z,10.00
2018-11-03T21:44:59.872Z,10.10
2018-11-03T21:47:27.054Z,10.10
2018-11-03T21:49:54.241Z,10.00
2018-11-03T21:52:21.429Z,10.00
2018-11-03T21:54:48.626Z,10.10
2018-11-03T21:57:15.895Z,10.00
2018-11-03T21:59:43.081Z,9.90
2018-11-03T22:02:10.323Z,9.90
2018-11-03T22:04:37.504Z,9.90
2018-11-03T22:07:04.921Z,9.80
2018-11-03T22:09:32.090Z,10.00
2018-11-03T22:11:59.261Z,10.00
2018-11-03T22:14:26.441Z,10.00
2018-11-03T22:16:53.609Z,10.00
2018-11-03T22:19:20.788Z,10.00
2018-11-03T22:21:48.018Z,10.00
2018-11-03T22:24:15.158Z,9.90
2018-11-03T22:26:42.318Z,9.90
2018-11-03T22:29:09.554Z,9.90
2018-11-03T22:31:36.721Z,9.90
2018-11-03T22:34:04.271Z,9.90
2018-11-03T22:36:32.238Z,9.90
2018-11-03T22:38:59.509Z,10.00
2018-11-03T22:41:26.670Z,9.90
2018-11-03T22:43:53.893Z,9.90
2018-11-03T22:46:21.053Z,9.90
2018-11-03T22:48:48.245Z,9.90
2018-11-03T22:51:15.431Z,9.80
2018-11-03T22:53:43.937Z,9.80
2018-11-03T22:56:11.242Z,9.80
2018-11-03T22:58:38.417Z,9.90
2018-11-03T23:01:05.664Z,9.90
2018-11-03T23:03:32.858Z,9.80
2018-11-03T23:06:00.110Z,9.80
2018-11-03T23:08:27.287Z,9.80
2018-11-03T23:10:54.479Z,9.90
2018-11-03T23:13:21.678Z,9.90
2018-11-03T23:15:48.894Z,10.00
2018-11-03T23:18:16.059Z,10.00
2018-11-03T23:20:43.229Z,10.00
2018-11-03T23:23:10.410Z,10.00
2018-11-03T23:25:37.590Z,9.90
2018-11-03T23:28:05.001Z,9.90
2018-11-03T23:30:32.163Z,9.90
2018-11-03T23:32:59.345Z,9.90
2018-11-03T23:35:26.521Z,9.80
2018-11-03T23:37:53.685Z,9.80
2018-11-03T23:40:20.908Z,9.90
2018-11-03T23:42:48.038Z,9.90
2018-11-03T23:45:15.225Z,10.00
2018-11-03T23:47:42.466Z,9.90
2018-11-03T23:50:10.914Z,9.90
2018-11-03T23:52:42.565Z,9.90
2018-11-03T23:55:09.775Z,9.90
2018-11-03T23:57:36.974Z,10.00
